sensor_id;sensor_type;location;lat;lon;timestamp;P1;durP1;ratioP1;P2;durP2;ratioP2
52480;SDS011;38393;52.404;13.532;2023-04-15T00:02:22;65.97;;;31.83;;
52480;SDS011;38393;52.404;13.532;2023-04-15T00:04:48;64.87;;;30.77;;
52480;SDS011;38393;52.404;13.532;2023-04-15T00:07:13;66.97;;;32.17;;
52480;SDS011;38393;52.404;13.532;2023-04-15T00:09:40;70.37;;;32.43;;
52480;SDS011;38393;52.404;13.532;2023-04-15T00:12:07;70.30;;;33.90;;
52480;SDS011;38393;52.404;13.532;2023-04-15T00:14:33;70.03;;;31.97;;
52480;SDS011;38393;52.404;13.532;2023-04-15T00:17:00;67.73;;;32.67;;
52480;SDS011;38393;52.404;13.532;2023-04-15T00:19:25;67.23;;;32.33;;
52480;SDS011;38393;52.404;13.532;2023-04-15T00:21:51;68.77;;;32.60;;
52480;SDS011;38393;52.404;13.532;2023-04-15T00:24:16;74.97;;;33.17;;
52480;SDS011;38393;52.404;13.532;2023-04-15T00:26:42;76.70;;;34.33;;
52480;SDS011;38393;52.404;13.532;2023-04-15T00:29:07;77.57;;;34.57;;
52480;SDS011;38393;52.404;13.532;2023-04-15T00:31:33;79.87;;;35.37;;
52480;SDS011;38393;52.404;13.532;2023-04-15T00:33:58;76.47;;;35.23;;
52480;SDS011;38393;52.404;13.532;2023-04-15T00:36:24;75.93;;;34.10;;
52480;SDS011;38393;52.404;13.532;2023-04-15T00:38:50;80.00;;;34.60;;
52480;SDS011;38393;52.404;13.532;2023-04-15T00:41:15;78.43;;;34.80;;
52480;SDS011;38393;52.404;13.532;2023-04-15T00:43:43;78.37;;;35.87;;
52480;SDS011;38393;52.404;13.532;2023-04-15T00:46:08;82.43;;;36.57;;
52480;SDS011;38393;52.404;13.532;2023-04-15T00:48:36;82.90;;;36.17;;
52480;SDS011;38393;52.404;13.532;2023-04-15T00:51:02;81.83;;;35.80;;
52480;SDS011;38393;52.404;13.532;2023-04-15T00:53:28;89.30;;;36.40;;
52480;SDS011;38393;52.404;13.532;2023-04-15T00:55:53;79.50;;;34.57;;
52480;SDS011;38393;52.404;13.532;2023-04-15T00:58:20;77.90;;;36.60;;
52480;SDS011;38393;52.404;13.532;2023-04-15T01:00:45;80.63;;;36.40;;
52480;SDS011;38393;52.404;13.532;2023-04-15T01:03:11;90.03;;;36.57;;
52480;SDS011;38393;52.404;13.532;2023-04-15T01:05:37;83.97;;;36.97;;
52480;SDS011;38393;52.404;13.532;2023-04-15T01:08:03;89.73;;;37.07;;
52480;SDS011;38393;52.404;13.532;2023-04-15T01:10:30;85.80;;;37.27;;
52480;SDS011;38393;52.404;13.532;2023-04-15T01:12:55;84.80;;;36.27;;
52480;SDS011;38393;52.404;13.532;2023-04-15T01:15:21;87.33;;;37.37;;
52480;SDS011;38393;52.404;13.532;2023-04-15T01:17:46;82.93;;;35.77;;
52480;SDS011;38393;52.404;13.532;2023-04-15T01:20:12;87.10;;;37.40;;
52480;SDS011;38393;52.404;13.532;2023-04-15T01:22:40;91.43;;;36.40;;
52480;SDS011;38393;52.404;13.532;2023-04-15T01:25:08;86.07;;;37.77;;
52480;SDS011;38393;52.404;13.532;2023-04-15T01:27:38;90.40;;;37.87;;
52480;SDS011;38393;52.404;13.532;2023-04-15T01:30:05;96.47;;;38.53;;
52480;SDS011;38393;52.404;13.532;2023-04-15T01:32:31;91.43;;;38.37;;
52480;SDS011;38393;52.404;13.532;2023-04-15T01:34:57;88.93;;;37.03;;
52480;SDS011;38393;52.404;13.532;2023-04-15T01:37:23;90.60;;;36.63;;
52480;SDS011;38393;52.404;13.532;2023-04-15T01:39:49;92.37;;;37.60;;
52480;SDS011;38393;52.404;13.532;2023-04-15T01:42:15;99.50;;;39.53;;
52480;SDS011;38393;52.404;13.532;2023-04-15T01:44:41;100.10;;;39.67;;
52480;SDS011;38393;52.404;13.532;2023-04-15T01:47:06;95.57;;;38.03;;
52480;SDS011;38393;52.404;13.532;2023-04-15T01:49:32;95.30;;;39.33;;
52480;SDS011;38393;52.404;13.532;2023-04-15T01:51:58;91.80;;;38.70;;
52480;SDS011;38393;52.404;13.532;2023-04-15T01:54:24;89.53;;;36.13;;
52480;SDS011;38393;52.404;13.532;2023-04-15T01:56:51;94.10;;;37.77;;
52480;SDS011;38393;52.404;13.532;2023-04-15T01:59:16;104.97;;;39.17;;
52480;SDS011;38393;52.404;13.532;2023-04-15T02:01:42;93.47;;;38.10;;
52480;SDS011;38393;52.404;13.532;2023-04-15T02:04:09;88.90;;;36.97;;
52480;SDS011;38393;52.404;13.532;2023-04-15T02:06:40;101.43;;;39.87;;
52480;SDS011;38393;52.404;13.532;2023-04-15T02:09:06;93.30;;;38.17;;
52480;SDS011;38393;52.404;13.532;2023-04-15T02:11:32;99.67;;;39.20;;
52480;SDS011;38393;52.404;13.532;2023-04-15T02:13:59;94.60;;;38.60;;
52480;SDS011;38393;52.404;13.532;2023-04-15T02:16:24;93.90;;;38.07;;
52480;SDS011;38393;52.404;13.532;2023-04-15T02:18:49;104.23;;;40.17;;
52480;SDS011;38393;52.404;13.532;2023-04-15T02:21:15;101.33;;;38.60;;
52480;SDS011;38393;52.404;13.532;2023-04-15T02:23:42;99.03;;;38.73;;
52480;SDS011;38393;52.404;13.532;2023-04-15T02:26:08;95.67;;;38.57;;
52480;SDS011;38393;52.404;13.532;2023-04-15T02:28:33;100.97;;;38.67;;
52480;SDS011;38393;52.404;13.532;2023-04-15T02:30:59;105.73;;;41.33;;
52480;SDS011;38393;52.404;13.532;2023-04-15T02:33:29;97.13;;;39.03;;
52480;SDS011;38393;52.404;13.532;2023-04-15T02:35:56;92.50;;;38.17;;
52480;SDS011;38393;52.404;13.532;2023-04-15T02:38:21;99.30;;;38.50;;
52480;SDS011;38393;52.404;13.532;2023-04-15T02:40:47;96.83;;;38.93;;
52480;SDS011;38393;52.404;13.532;2023-04-15T02:43:14;96.17;;;38.40;;
52480;SDS011;38393;52.404;13.532;2023-04-15T02:45:41;88.23;;;37.23;;
52480;SDS011;38393;52.404;13.532;2023-04-15T02:48:07;94.63;;;37.83;;
52480;SDS011;38393;52.404;13.532;2023-04-15T02:50:33;91.80;;;37.37;;
52480;SDS011;38393;52.404;13.532;2023-04-15T02:52:58;93.07;;;39.13;;
52480;SDS011;38393;52.404;13.532;2023-04-15T02:55:25;86.70;;;35.97;;
52480;SDS011;38393;52.404;13.532;2023-04-15T02:57:50;92.73;;;37.90;;
52480;SDS011;38393;52.404;13.532;2023-04-15T03:00:16;94.50;;;37.60;;
52480;SDS011;38393;52.404;13.532;2023-04-15T03:02:41;94.23;;;38.37;;
52480;SDS011;38393;52.404;13.532;2023-04-15T03:05:11;92.30;;;37.93;;
52480;SDS011;38393;52.404;13.532;2023-04-15T03:07:38;88.37;;;38.43;;
52480;SDS011;38393;52.404;13.532;2023-04-15T03:10:05;91.47;;;37.57;;
52480;SDS011;38393;52.404;13.532;2023-04-15T03:12:31;87.83;;;36.97;;
52480;SDS011;38393;52.404;13.532;2023-04-15T03:14:57;92.17;;;37.03;;
52480;SDS011;38393;52.404;13.532;2023-04-15T03:17:22;91.07;;;36.60;;
52480;SDS011;38393;52.404;13.532;2023-04-15T03:19:48;89.80;;;36.10;;
52480;SDS011;38393;52.404;13.532;2023-04-15T03:22:13;94.50;;;38.87;;
52480;SDS011;38393;52.404;13.532;2023-04-15T03:24:38;85.40;;;36.77;;
52480;SDS011;38393;52.404;13.532;2023-04-15T03:27:04;82.40;;;35.13;;
52480;SDS011;38393;52.404;13.532;2023-04-15T03:29:31;81.33;;;35.23;;
52480;SDS011;38393;52.404;13.532;2023-04-15T03:31:57;87.30;;;36.93;;
52480;SDS011;38393;52.404;13.532;2023-04-15T03:34:23;82.63;;;36.77;;
52480;SDS011;38393;52.404;13.532;2023-04-15T03:36:48;78.93;;;35.47;;
52480;SDS011;38393;52.404;13.532;2023-04-15T03:39:14;83.70;;;35.10;;
52480;SDS011;38393;52.404;13.532;2023-04-15T03:41:39;75.30;;;35.07;;
52480;SDS011;38393;52.404;13.532;2023-04-15T03:44:05;78.23;;;35.13;;
52480;SDS011;38393;52.404;13.532;2023-04-15T03:46:30;84.47;;;35.10;;
52480;SDS011;38393;52.404;13.532;2023-04-15T03:48:56;86.30;;;34.90;;
52480;SDS011;38393;52.404;13.532;2023-04-15T03:51:21;79.83;;;35.53;;
52480;SDS011;38393;52.404;13.532;2023-04-15T03:53:47;85.90;;;35.50;;
52480;SDS011;38393;52.404;13.532;2023-04-15T03:56:12;73.83;;;34.20;;
52480;SDS011;38393;52.404;13.532;2023-04-15T03:58:37;72.53;;;33.90;;
52480;SDS011;38393;52.404;13.532;2023-04-15T04:01:03;78.93;;;34.07;;
52480;SDS011;38393;52.404;13.532;2023-04-15T04:03:28;78.40;;;33.77;;
52480;SDS011;38393;52.404;13.532;2023-04-15T04:05:54;71.23;;;32.47;;
52480;SDS011;38393;52.404;13.532;2023-04-15T04:08:20;70.13;;;32.73;;
52480;SDS011;38393;52.404;13.532;2023-04-15T04:10:46;71.07;;;32.80;;
52480;SDS011;38393;52.404;13.532;2023-04-15T04:13:11;76.70;;;34.20;;
52480;SDS011;38393;52.404;13.532;2023-04-15T04:15:37;76.63;;;33.53;;
52480;SDS011;38393;52.404;13.532;2023-04-15T04:18:02;73.80;;;33.27;;
52480;SDS011;38393;52.404;13.532;2023-04-15T04:20:28;70.13;;;32.00;;
52480;SDS011;38393;52.404;13.532;2023-04-15T04:22:55;75.17;;;34.20;;
52480;SDS011;38393;52.404;13.532;2023-04-15T04:25:21;78.73;;;36.70;;
52480;SDS011;38393;52.404;13.532;2023-04-15T04:27:46;68.83;;;32.73;;
52480;SDS011;38393;52.404;13.532;2023-04-15T04:30:12;68.07;;;32.53;;
52480;SDS011;38393;52.404;13.532;2023-04-15T04:32:37;67.93;;;32.47;;
52480;SDS011;38393;52.404;13.532;2023-04-15T04:35:03;64.40;;;31.50;;
52480;SDS011;38393;52.404;13.532;2023-04-15T04:37:29;66.57;;;33.10;;
52480;SDS011;38393;52.404;13.532;2023-04-15T04:39:54;66.73;;;32.40;;
52480;SDS011;38393;52.404;13.532;2023-04-15T04:42:20;66.87;;;32.03;;
52480;SDS011;38393;52.404;13.532;2023-04-15T04:44:46;65.10;;;31.63;;
52480;SDS011;38393;52.404;13.532;2023-04-15T04:47:11;64.43;;;31.63;;
52480;SDS011;38393;52.404;13.532;2023-04-15T04:49:37;70.30;;;33.07;;
52480;SDS011;38393;52.404;13.532;2023-04-15T04:52:03;71.27;;;33.53;;
52480;SDS011;38393;52.404;13.532;2023-04-15T04:54:28;64.60;;;31.77;;
52480;SDS011;38393;52.404;13.532;2023-04-15T04:56:55;63.67;;;31.47;;
52480;SDS011;38393;52.404;13.532;2023-04-15T04:59:21;61.50;;;31.40;;
52480;SDS011;38393;52.404;13.532;2023-04-15T05:01:47;66.60;;;31.43;;
52480;SDS011;38393;52.404;13.532;2023-04-15T05:04:13;58.23;;;30.00;;
52480;SDS011;38393;52.404;13.532;2023-04-15T05:06:38;57.40;;;29.87;;
52480;SDS011;38393;52.404;13.532;2023-04-15T05:09:04;57.23;;;29.03;;
52480;SDS011;38393;52.404;13.532;2023-04-15T05:11:29;56.87;;;28.10;;
52480;SDS011;38393;52.404;13.532;2023-04-15T05:13:55;56.47;;;28.17;;
52480;SDS011;38393;52.404;13.532;2023-04-15T05:16:22;54.10;;;27.60;;
52480;SDS011;38393;52.404;13.532;2023-04-15T05:18:47;48.37;;;26.90;;
52480;SDS011;38393;52.404;13.532;2023-04-15T05:21:13;46.83;;;26.37;;
52480;SDS011;38393;52.404;13.532;2023-04-15T05:23:38;48.50;;;25.13;;
52480;SDS011;38393;52.404;13.532;2023-04-15T05:26:04;43.33;;;24.17;;
52480;SDS011;38393;52.404;13.532;2023-04-15T05:28:29;42.50;;;24.00;;
52480;SDS011;38393;52.404;13.532;2023-04-15T05:30:55;42.30;;;23.93;;
52480;SDS011;38393;52.404;13.532;2023-04-15T05:33:20;41.17;;;23.73;;
52480;SDS011;38393;52.404;13.532;2023-04-15T05:35:46;37.30;;;22.93;;
52480;SDS011;38393;52.404;13.532;2023-04-15T05:38:12;36.57;;;21.03;;
52480;SDS011;38393;52.404;13.532;2023-04-15T05:40:37;36.43;;;21.80;;
52480;SDS011;38393;52.404;13.532;2023-04-15T05:43:03;36.37;;;21.23;;
52480;SDS011;38393;52.404;13.532;2023-04-15T05:45:28;31.90;;;20.13;;
52480;SDS011;38393;52.404;13.532;2023-04-15T05:47:54;31.30;;;18.97;;
52480;SDS011;38393;52.404;13.532;2023-04-15T05:50:19;29.37;;;18.70;;
52480;SDS011;38393;52.404;13.532;2023-04-15T05:52:45;30.77;;;19.27;;
52480;SDS011;38393;52.404;13.532;2023-04-15T05:55:11;33.77;;;17.80;;
52480;SDS011;38393;52.404;13.532;2023-04-15T05:57:36;23.77;;;16.50;;
52480;SDS011;38393;52.404;13.532;2023-04-15T06:00:03;26.23;;;17.87;;
52480;SDS011;38393;52.404;13.532;2023-04-15T06:02:29;28.03;;;17.17;;
52480;SDS011;38393;52.404;13.532;2023-04-15T06:04:55;27.57;;;18.10;;
52480;SDS011;38393;52.404;13.532;2023-04-15T06:07:21;26.77;;;16.97;;
52480;SDS011;38393;52.404;13.532;2023-04-15T06:09:47;26.40;;;17.00;;
52480;SDS011;38393;52.404;13.532;2023-04-15T06:12:13;29.73;;;17.47;;
52480;SDS011;38393;52.404;13.532;2023-04-15T06:14:39;24.83;;;16.47;;
52480;SDS011;38393;52.404;13.532;2023-04-15T06:17:05;25.03;;;16.90;;
52480;SDS011;38393;52.404;13.532;2023-04-15T06:19:30;23.70;;;16.17;;
52480;SDS011;38393;52.404;13.532;2023-04-15T06:21:56;26.50;;;16.70;;
52480;SDS011;38393;52.404;13.532;2023-04-15T06:24:22;36.83;;;22.47;;
52480;SDS011;38393;52.404;13.532;2023-04-15T06:26:48;30.43;;;17.20;;
52480;SDS011;38393;52.404;13.532;2023-04-15T06:29:13;28.43;;;18.60;;
52480;SDS011;38393;52.404;13.532;2023-04-15T06:31:39;21.40;;;15.40;;
52480;SDS011;38393;52.404;13.532;2023-04-15T06:34:04;25.07;;;15.93;;
52480;SDS011;38393;52.404;13.532;2023-04-15T06:36:30;22.83;;;14.93;;
52480;SDS011;38393;52.404;13.532;2023-04-15T06:38:56;23.13;;;14.80;;
52480;SDS011;38393;52.404;13.532;2023-04-15T06:41:21;25.17;;;15.80;;
52480;SDS011;38393;52.404;13.532;2023-04-15T06:43:47;25.20;;;15.30;;
52480;SDS011;38393;52.404;13.532;2023-04-15T06:46:12;20.70;;;14.67;;
52480;SDS011;38393;52.404;13.532;2023-04-15T06:48:38;23.17;;;14.63;;
52480;SDS011;38393;52.404;13.532;2023-04-15T06:51:04;20.30;;;14.77;;
52480;SDS011;38393;52.404;13.532;2023-04-15T06:53:29;24.80;;;14.83;;
52480;SDS011;38393;52.404;13.532;2023-04-15T06:55:55;20.97;;;13.80;;
52480;SDS011;38393;52.404;13.532;2023-04-15T06:58:20;24.00;;;14.70;;
52480;SDS011;38393;52.404;13.532;2023-04-15T07:00:46;22.20;;;13.87;;
52480;SDS011;38393;52.404;13.532;2023-04-15T07:03:12;22.53;;;14.10;;
52480;SDS011;38393;52.404;13.532;2023-04-15T07:05:38;21.63;;;14.20;;
52480;SDS011;38393;52.404;13.532;2023-04-15T07:08:05;22.13;;;13.30;;
52480;SDS011;38393;52.404;13.532;2023-04-15T07:10:31;24.90;;;14.43;;
52480;SDS011;38393;52.404;13.532;2023-04-15T07:12:57;19.83;;;13.70;;
52480;SDS011;38393;52.404;13.532;2023-04-15T07:15:23;20.47;;;13.77;;
52480;SDS011;38393;52.404;13.532;2023-04-15T07:17:48;24.07;;;14.47;;
52480;SDS011;38393;52.404;13.532;2023-04-15T07:20:14;26.20;;;14.17;;
52480;SDS011;38393;52.404;13.532;2023-04-15T07:22:39;22.43;;;14.10;;
52480;SDS011;38393;52.404;13.532;2023-04-15T07:25:05;19.93;;;14.23;;
52480;SDS011;38393;52.404;13.532;2023-04-15T07:27:31;23.50;;;15.17;;
52480;SDS011;38393;52.404;13.532;2023-04-15T07:29:57;23.50;;;15.37;;
52480;SDS011;38393;52.404;13.532;2023-04-15T07:32:22;22.10;;;15.37;;
52480;SDS011;38393;52.404;13.532;2023-04-15T07:34:48;25.90;;;16.23;;
52480;SDS011;38393;52.404;13.532;2023-04-15T07:37:13;22.93;;;15.87;;
52480;SDS011;38393;52.404;13.532;2023-04-15T07:39:39;22.80;;;16.20;;
52480;SDS011;38393;52.404;13.532;2023-04-15T07:42:05;23.97;;;15.60;;
52480;SDS011;38393;52.404;13.532;2023-04-15T07:44:30;24.67;;;16.13;;
52480;SDS011;38393;52.404;13.532;2023-04-15T07:46:56;24.57;;;16.43;;
52480;SDS011;38393;52.404;13.532;2023-04-15T07:49:21;26.50;;;16.70;;
52480;SDS011;38393;52.404;13.532;2023-04-15T07:51:47;26.27;;;17.90;;
52480;SDS011;38393;52.404;13.532;2023-04-15T07:54:13;24.47;;;16.73;;
52480;SDS011;38393;52.404;13.532;2023-04-15T07:56:39;25.23;;;17.30;;
52480;SDS011;38393;52.404;13.532;2023-04-15T07:59:05;26.37;;;19.10;;
52480;SDS011;38393;52.404;13.532;2023-04-15T08:01:30;26.67;;;17.57;;
52480;SDS011;38393;52.404;13.532;2023-04-15T08:03:57;25.50;;;16.73;;
52480;SDS011;38393;52.404;13.532;2023-04-15T08:06:23;28.33;;;18.60;;
52480;SDS011;38393;52.404;13.532;2023-04-15T08:08:48;28.37;;;18.83;;
52480;SDS011;38393;52.404;13.532;2023-04-15T08:11:14;25.50;;;17.87;;
52480;SDS011;38393;52.404;13.532;2023-04-15T08:13:39;27.30;;;18.40;;
52480;SDS011;38393;52.404;13.532;2023-04-15T08:16:21;27.43;;;17.90;;
52480;SDS011;38393;52.404;13.532;2023-04-15T08:18:48;25.67;;;17.87;;
52480;SDS011;38393;52.404;13.532;2023-04-15T08:21:15;27.60;;;18.20;;
52480;SDS011;38393;52.404;13.532;2023-04-15T08:23:42;26.67;;;18.43;;
52480;SDS011;38393;52.404;13.532;2023-04-15T08:26:08;24.80;;;17.23;;
52480;SDS011;38393;52.404;13.532;2023-04-15T08:28:34;28.13;;;18.67;;
52480;SDS011;38393;52.404;13.532;2023-04-15T08:30:59;25.30;;;18.43;;
52480;SDS011;38393;52.404;13.532;2023-04-15T08:33:25;23.80;;;17.10;;
52480;SDS011;38393;52.404;13.532;2023-04-15T08:35:52;28.37;;;18.53;;
52480;SDS011;38393;52.404;13.532;2023-04-15T08:38:18;24.40;;;16.93;;
52480;SDS011;38393;52.404;13.532;2023-04-15T08:40:44;29.43;;;18.47;;
52480;SDS011;38393;52.404;13.532;2023-04-15T08:43:12;28.23;;;18.17;;
52480;SDS011;38393;52.404;13.532;2023-04-15T08:45:42;25.27;;;17.67;;
52480;SDS011;38393;52.404;13.532;2023-04-15T08:48:10;24.50;;;17.33;;
52480;SDS011;38393;52.404;13.532;2023-04-15T08:50:40;25.60;;;17.60;;
52480;SDS011;38393;52.404;13.532;2023-04-15T08:53:06;25.50;;;17.03;;
52480;SDS011;38393;52.404;13.532;2023-04-15T08:55:32;29.23;;;17.30;;
52480;SDS011;38393;52.404;13.532;2023-04-15T08:58:03;25.67;;;16.90;;
52480;SDS011;38393;52.404;13.532;2023-04-15T09:00:30;29.43;;;17.70;;
52480;SDS011;38393;52.404;13.532;2023-04-15T09:02:57;24.33;;;17.10;;
52480;SDS011;38393;52.404;13.532;2023-04-15T09:05:23;22.07;;;17.10;;
52480;SDS011;38393;52.404;13.532;2023-04-15T09:07:49;27.10;;;18.10;;
52480;SDS011;38393;52.404;13.532;2023-04-15T09:10:15;26.87;;;16.90;;
52480;SDS011;38393;52.404;13.532;2023-04-15T09:12:41;25.10;;;17.40;;
52480;SDS011;38393;52.404;13.532;2023-04-15T09:15:06;24.73;;;17.07;;
52480;SDS011;38393;52.404;13.532;2023-04-15T09:17:34;26.47;;;17.67;;
52480;SDS011;38393;52.404;13.532;2023-04-15T09:20:11;25.40;;;17.17;;
52480;SDS011;38393;52.404;13.532;2023-04-15T09:22:39;23.60;;;16.07;;
52480;SDS011;38393;52.404;13.532;2023-04-15T09:25:24;23.33;;;16.97;;
52480;SDS011;38393;52.404;13.532;2023-04-15T09:27:52;22.60;;;15.90;;
52480;SDS011;38393;52.404;13.532;2023-04-15T09:30:19;23.80;;;15.83;;
52480;SDS011;38393;52.404;13.532;2023-04-15T09:32:51;24.57;;;17.33;;
52480;SDS011;38393;52.404;13.532;2023-04-15T09:35:21;24.77;;;17.23;;
52480;SDS011;38393;52.404;13.532;2023-04-15T09:37:48;23.80;;;16.90;;
52480;SDS011;38393;52.404;13.532;2023-04-15T09:40:20;23.47;;;16.83;;
52480;SDS011;38393;52.404;13.532;2023-04-15T09:42:56;24.40;;;16.73;;
52480;SDS011;38393;52.404;13.532;2023-04-15T09:45:22;25.83;;;17.67;;
52480;SDS011;38393;52.404;13.532;2023-04-15T09:47:48;24.53;;;16.60;;
52480;SDS011;38393;52.404;13.532;2023-04-15T09:50:15;24.30;;;17.23;;
52480;SDS011;38393;52.404;13.532;2023-04-15T09:52:42;23.03;;;16.40;;
52480;SDS011;38393;52.404;13.532;2023-04-15T09:55:07;25.10;;;17.77;;
52480;SDS011;38393;52.404;13.532;2023-04-15T09:57:34;23.90;;;16.43;;
52480;SDS011;38393;52.404;13.532;2023-04-15T10:00:03;23.60;;;16.40;;
52480;SDS011;38393;52.404;13.532;2023-04-15T10:02:29;21.80;;;16.43;;
52480;SDS011;38393;52.404;13.532;2023-04-15T10:04:55;21.77;;;15.83;;
52480;SDS011;38393;52.404;13.532;2023-04-15T10:07:21;23.27;;;17.07;;
52480;SDS011;38393;52.404;13.532;2023-04-15T10:09:47;24.93;;;17.20;;
52480;SDS011;38393;52.404;13.532;2023-04-15T10:12:14;25.33;;;16.20;;
52480;SDS011;38393;52.404;13.532;2023-04-15T10:14:41;23.07;;;16.00;;
52480;SDS011;38393;52.404;13.532;2023-04-15T10:17:08;21.57;;;15.87;;
52480;SDS011;38393;52.404;13.532;2023-04-15T10:19:36;19.60;;;15.03;;
52480;SDS011;38393;52.404;13.532;2023-04-15T10:22:02;20.90;;;16.00;;
52480;SDS011;38393;52.404;13.532;2023-04-15T10:24:30;22.27;;;15.97;;
52480;SDS011;38393;52.404;13.532;2023-04-15T10:26:56;20.70;;;14.93;;
52480;SDS011;38393;52.404;13.532;2023-04-15T10:29:24;20.40;;;15.53;;
52480;SDS011;38393;52.404;13.532;2023-04-15T10:31:53;21.40;;;15.17;;
52480;SDS011;38393;52.404;13.532;2023-04-15T10:34:20;21.17;;;15.27;;
52480;SDS011;38393;52.404;13.532;2023-04-15T10:36:47;22.67;;;15.10;;
52480;SDS011;38393;52.404;13.532;2023-04-15T10:42:06;20.87;;;14.90;;
52480;SDS011;38393;52.404;13.532;2023-04-15T10:44:34;18.77;;;14.43;;
52480;SDS011;38393;52.404;13.532;2023-04-15T10:47:03;19.50;;;14.00;;
52480;SDS011;38393;52.404;13.532;2023-04-15T10:49:59;20.53;;;14.90;;
52480;SDS011;38393;52.404;13.532;2023-04-15T10:52:26;20.60;;;14.43;;
52480;SDS011;38393;52.404;13.532;2023-04-15T10:57:40;23.47;;;15.13;;
52480;SDS011;38393;52.404;13.532;2023-04-15T11:00:13;20.43;;;15.23;;
52480;SDS011;38393;52.404;13.532;2023-04-15T11:05:12;20.73;;;15.10;;
52480;SDS011;38393;52.404;13.532;2023-04-15T11:07:51;21.90;;;14.90;;
52480;SDS011;38393;52.404;13.532;2023-04-15T11:12:59;23.40;;;15.07;;
52480;SDS011;38393;52.404;13.532;2023-04-15T11:15:29;20.87;;;15.73;;
52480;SDS011;38393;52.404;13.532;2023-04-15T11:17:56;19.80;;;14.80;;
52480;SDS011;38393;52.404;13.532;2023-04-15T11:20:23;21.07;;;15.13;;
52480;SDS011;38393;52.404;13.532;2023-04-15T11:22:49;20.27;;;14.20;;
52480;SDS011;38393;52.404;13.532;2023-04-15T11:25:22;20.17;;;14.67;;
52480;SDS011;38393;52.404;13.532;2023-04-15T11:27:49;21.40;;;14.57;;
52480;SDS011;38393;52.404;13.532;2023-04-15T11:30:17;22.13;;;14.73;;
52480;SDS011;38393;52.404;13.532;2023-04-15T11:32:47;20.23;;;14.17;;
52480;SDS011;38393;52.404;13.532;2023-04-15T11:35:14;20.20;;;14.53;;
52480;SDS011;38393;52.404;13.532;2023-04-15T11:37:40;22.30;;;14.57;;
52480;SDS011;38393;52.404;13.532;2023-04-15T11:40:07;19.90;;;14.67;;
52480;SDS011;38393;52.404;13.532;2023-04-15T11:42:33;21.43;;;14.87;;
52480;SDS011;38393;52.404;13.532;2023-04-15T11:45:05;20.10;;;14.23;;
52480;SDS011;38393;52.404;13.532;2023-04-15T11:47:31;19.30;;;14.07;;
52480;SDS011;38393;52.404;13.532;2023-04-15T11:49:58;21.50;;;15.23;;
52480;SDS011;38393;52.404;13.532;2023-04-15T11:52:38;18.70;;;13.63;;
52480;SDS011;38393;52.404;13.532;2023-04-15T11:55:05;22.07;;;15.00;;
52480;SDS011;38393;52.404;13.532;2023-04-15T11:57:32;17.87;;;12.87;;
52480;SDS011;38393;52.404;13.532;2023-04-15T11:59:59;18.37;;;12.63;;
52480;SDS011;38393;52.404;13.532;2023-04-15T12:02:30;20.23;;;13.37;;
52480;SDS011;38393;52.404;13.532;2023-04-15T12:05:03;20.57;;;12.97;;
52480;SDS011;38393;52.404;13.532;2023-04-15T12:07:30;16.30;;;12.67;;
52480;SDS011;38393;52.404;13.532;2023-04-15T12:09:55;16.90;;;12.37;;
52480;SDS011;38393;52.404;13.532;2023-04-15T12:12:25;16.57;;;12.50;;
52480;SDS011;38393;52.404;13.532;2023-04-15T12:14:51;18.87;;;13.70;;
52480;SDS011;38393;52.404;13.532;2023-04-15T12:17:17;16.47;;;12.37;;
52480;SDS011;38393;52.404;13.532;2023-04-15T12:19:43;17.07;;;12.07;;
52480;SDS011;38393;52.404;13.532;2023-04-15T12:22:13;19.10;;;13.33;;
52480;SDS011;38393;52.404;13.532;2023-04-15T12:24:41;16.60;;;12.33;;
52480;SDS011;38393;52.404;13.532;2023-04-15T12:27:09;16.00;;;12.37;;
52480;SDS011;38393;52.404;13.532;2023-04-15T12:29:36;17.47;;;12.30;;
52480;SDS011;38393;52.404;13.532;2023-04-15T12:32:06;17.37;;;12.97;;
52480;SDS011;38393;52.404;13.532;2023-04-15T12:34:37;18.33;;;12.70;;
52480;SDS011;38393;52.404;13.532;2023-04-15T12:37:16;19.83;;;13.60;;
52480;SDS011;38393;52.404;13.532;2023-04-15T12:39:42;20.70;;;13.33;;
52480;SDS011;38393;52.404;13.532;2023-04-15T12:42:13;17.60;;;12.63;;
52480;SDS011;38393;52.404;13.532;2023-04-15T12:44:39;16.20;;;12.17;;
52480;SDS011;38393;52.404;13.532;2023-04-15T12:47:05;17.43;;;12.73;;
52480;SDS011;38393;52.404;13.532;2023-04-15T12:49:31;16.97;;;12.60;;
52480;SDS011;38393;52.404;13.532;2023-04-15T12:51:58;15.37;;;12.17;;
52480;SDS011;38393;52.404;13.532;2023-04-15T12:54:25;16.13;;;12.53;;
52480;SDS011;38393;52.404;13.532;2023-04-15T12:56:51;16.53;;;12.07;;
52480;SDS011;38393;52.404;13.532;2023-04-15T12:59:17;16.70;;;11.63;;
52480;SDS011;38393;52.404;13.532;2023-04-15T13:01:42;16.40;;;11.33;;
52480;SDS011;38393;52.404;13.532;2023-04-15T13:04:09;15.77;;;12.40;;
52480;SDS011;38393;52.404;13.532;2023-04-15T13:06:34;14.07;;;11.13;;
52480;SDS011;38393;52.404;13.532;2023-04-15T13:09:01;16.53;;;12.43;;
52480;SDS011;38393;52.404;13.532;2023-04-15T13:11:27;16.63;;;11.00;;
52480;SDS011;38393;52.404;13.532;2023-04-15T13:13:55;14.57;;;11.40;;
52480;SDS011;38393;52.404;13.532;2023-04-15T13:16:23;15.73;;;11.33;;
52480;SDS011;38393;52.404;13.532;2023-04-15T13:18:48;12.60;;;9.90;;
52480;SDS011;38393;52.404;13.532;2023-04-15T13:21:14;15.73;;;10.70;;
52480;SDS011;38393;52.404;13.532;2023-04-15T13:23:40;12.97;;;10.17;;
52480;SDS011;38393;52.404;13.532;2023-04-15T13:26:06;14.47;;;10.47;;
52480;SDS011;38393;52.404;13.532;2023-04-15T13:28:32;14.37;;;11.00;;
52480;SDS011;38393;52.404;13.532;2023-04-15T13:30:57;15.03;;;11.83;;
52480;SDS011;38393;52.404;13.532;2023-04-15T13:33:24;13.00;;;9.90;;
52480;SDS011;38393;52.404;13.532;2023-04-15T13:35:49;14.43;;;11.10;;
52480;SDS011;38393;52.404;13.532;2023-04-15T13:38:15;12.40;;;10.17;;
52480;SDS011;38393;52.404;13.532;2023-04-15T13:40:40;13.07;;;10.27;;
52480;SDS011;38393;52.404;13.532;2023-04-15T13:43:06;13.63;;;9.77;;
52480;SDS011;38393;52.404;13.532;2023-04-15T13:45:31;12.27;;;9.77;;
52480;SDS011;38393;52.404;13.532;2023-04-15T13:47:57;13.07;;;10.30;;
52480;SDS011;38393;52.404;13.532;2023-04-15T13:50:22;12.40;;;9.80;;
52480;SDS011;38393;52.404;13.532;2023-04-15T13:52:48;13.17;;;10.30;;
52480;SDS011;38393;52.404;13.532;2023-04-15T13:55:13;12.77;;;9.53;;
52480;SDS011;38393;52.404;13.532;2023-04-15T13:57:39;14.67;;;10.60;;
52480;SDS011;38393;52.404;13.532;2023-04-15T14:00:05;12.93;;;9.43;;
52480;SDS011;38393;52.404;13.532;2023-04-15T14:02:31;13.03;;;9.73;;
52480;SDS011;38393;52.404;13.532;2023-04-15T14:04:56;12.57;;;9.03;;
52480;SDS011;38393;52.404;13.532;2023-04-15T14:07:22;12.40;;;9.47;;
52480;SDS011;38393;52.404;13.532;2023-04-15T14:09:47;12.17;;;9.93;;
52480;SDS011;38393;52.404;13.532;2023-04-15T14:12:13;13.30;;;10.17;;
52480;SDS011;38393;52.404;13.532;2023-04-15T14:14:39;13.87;;;9.90;;
52480;SDS011;38393;52.404;13.532;2023-04-15T14:17:05;14.77;;;11.20;;